sensor_id;sensor_type;location;lat;lon;timestamp;P1;P2;P0
13030;PMS7003;6582;54.644;9.760;2023-04-06T10:35:06;8.4;7.9;
13030;PMS7003;6582;54.644;9.760;2023-04-06T10:40:01;19.4;17.4;
13030;PMS7003;6582;54.644;9.760;2023-04-06T10:45:06;33.4;29.1;
13030;PMS7003;6582;54.644;9.760;2023-04-06T10:50:06;48.1;41.0;
13030;PMS7003;6582;54.644;9.760;2023-04-06T10:55:04;47.9;40.8;
13030;PMS7003;6582;54.644;9.760;2023-04-06T11:00:01;47.0;40.2;
13030;PMS7003;6582;54.644;9.760;2023-04-06T11:05:01;46.7;40.1;
13030;PMS7003;6582;54.644;9.760;2023-04-06T11:10:20;49.4;42.6;
13030;PMS7003;6582;54.644;9.760;2023-04-06T11:15:02;44.0;39.1;
13030;PMS7003;6582;54.644;9.760;2023-04-06T11:20:09;49.7;44.6;
13030;PMS7003;6582;54.644;9.760;2023-04-06T11:25:05;48.8;43.8;
13030;PMS7003;6582;54.644;9.760;2023-04-06T11:30:02;43.0;39.3;
13030;PMS7003;6582;54.644;9.760;2023-04-06T11:35:02;28.3;27.0;
13030;PMS7003;6582;54.644;9.760;2023-04-06T11:40:01;34.9;32.2;
13030;PMS7003;6582;54.644;9.760;2023-04-06T11:45:01;39.9;35.6;
13030;PMS7003;6582;54.644;9.760;2023-04-06T12:05:02;44.8;40.8;
13030;PMS7003;6582;54.644;9.760;2023-04-06T12:10:01;37.7;35.3;
13030;PMS7003;6582;54.644;9.760;2023-04-06T12:15:06;34.1;32.0;
13030;PMS7003;6582;54.644;9.760;2023-04-06T12:20:24;30.6;29.0;
13030;PMS7003;6582;54.644;9.760;2023-04-06T12:25:06;29.9;28.5;
13030;PMS7003;6582;54.644;9.760;2023-04-06T12:30:01;24.3;23.6;
13030;PMS7003;6582;54.644;9.760;2023-04-06T12:35:01;18.2;17.7;
13030;PMS7003;6582;54.644;9.760;2023-04-06T12:40:06;12.8;12.6;
13030;PMS7003;6582;54.644;9.760;2023-04-06T12:45:02;9.6;9.4;
13030;PMS7003;6582;54.644;9.760;2023-04-06T12:50:02;4.1;4.1;
13030;PMS7003;6582;54.644;9.760;2023-04-06T12:55:02;4.5;4.5;
13030;PMS7003;6582;54.644;9.760;2023-04-06T13:00:02;9.0;9.0;
13030;PMS7003;6582;54.644;9.760;2023-04-06T13:05:01;10.7;10.7;
13030;PMS7003;6582;54.644;9.760;2023-04-06T13:10:01;18.8;17.6;
13030;PMS7003;6582;54.644;9.760;2023-04-06T13:15:01;29.7;27.1;
13030;PMS7003;6582;54.644;9.760;2023-04-06T13:20:01;31.2;28.4;
13030;PMS7003;6582;54.644;9.760;2023-04-06T13:25:02;33.4;30.3;
13030;PMS7003;6582;54.644;9.760;2023-04-06T13:30:02;34.5;31.4;
13030;PMS7003;6582;54.644;9.760;2023-04-06T13:35:06;25.7;23.7;
13030;PMS7003;6582;54.644;9.760;2023-04-06T13:40:06;18.7;18.2;
13030;PMS7003;6582;54.644;9.760;2023-04-06T13:45:01;14.2;13.9;
13030;PMS7003;6582;54.644;9.760;2023-04-06T13:50:01;10.2;10.2;
13030;PMS7003;6582;54.644;9.760;2023-04-06T13:55:01;11.9;11.9;
13030;PMS7003;6582;54.644;9.760;2023-04-06T14:00:09;15.7;15.7;
13030;PMS7003;6582;54.644;9.760;2023-04-06T14:05:12;18.0;17.8;
13030;PMS7003;6582;54.644;9.760;2023-04-06T14:10:02;21.2;21.0;
13030;PMS7003;6582;54.644;9.760;2023-04-06T14:15:01;29.6;27.9;
13030;PMS7003;6582;54.644;9.760;2023-04-06T14:20:01;25.0;23.3;
13030;PMS7003;6582;54.644;9.760;2023-04-06T14:25:01;34.4;30.3;
13030;PMS7003;6582;54.644;9.760;2023-04-06T14:30:02;39.6;34.0;
13030;PMS7003;6582;54.644;9.760;2023-04-06T14:40:02;34.2;30.2;
13030;PMS7003;6582;54.644;9.760;2023-04-06T14:45:01;39.6;35.4;
13030;PMS7003;6582;54.644;9.760;2023-04-06T14:50:01;37.1;33.9;
13030;PMS7003;6582;54.644;9.760;2023-04-06T14:55:01;34.4;32.2;
13030;PMS7003;6582;54.644;9.760;2023-04-06T15:00:02;36.2;33.5;
13030;PMS7003;6582;54.644;9.760;2023-04-06T15:05:06;36.3;33.5;
13030;PMS7003;6582;54.644;9.760;2023-04-06T15:10:01;33.6;31.0;
13030;PMS7003;6582;54.644;9.760;2023-04-06T15:15:01;30.5;28.4;
13030;PMS7003;6582;54.644;9.760;2023-04-06T15:20:01;29.6;27.7;
13030;PMS7003;6582;54.644;9.760;2023-04-06T15:25:07;29.7;28.0;
13030;PMS7003;6582;54.644;9.760;2023-04-06T15:30:03;31.9;29.7;
13030;PMS7003;6582;54.644;9.760;2023-04-06T15:35:08;37.9;35.0;
13030;PMS7003;6582;54.644;9.760;2023-04-06T15:40:03;35.1;33.1;
13030;PMS7003;6582;54.644;9.760;2023-04-06T15:45:02;30.0;28.4;
13030;PMS7003;6582;54.644;9.760;2023-04-06T15:50:02;26.8;25.4;
13030;PMS7003;6582;54.644;9.760;2023-04-06T15:55:07;25.4;24.4;
13030;PMS7003;6582;54.644;9.760;2023-04-06T16:00:01;19.5;19.2;
13030;PMS7003;6582;54.644;9.760;2023-04-06T16:05:06;16.7;16.4;
13030;PMS7003;6582;54.644;9.760;2023-04-06T16:10:02;17.0;16.7;
13030;PMS7003;6582;54.644;9.760;2023-04-06T16:15:01;14.2;14.0;
13030;PMS7003;6582;54.644;9.760;2023-04-06T16:20:02;12.9;12.5;
13030;PMS7003;6582;54.644;9.760;2023-04-06T16:25:01;12.6;12.1;
13030;PMS7003;6582;54.644;9.760;2023-04-06T16:30:01;17.4;16.7;
13030;PMS7003;6582;54.644;9.760;2023-04-06T16:35:03;26.7;24.1;
13030;PMS7003;6582;54.644;9.760;2023-04-06T16:40:06;39.3;34.8;
13030;PMS7003;6582;54.644;9.760;2023-04-06T16:45:01;46.0;40.1;
13030;PMS7003;6582;54.644;9.760;2023-04-06T16:50:12;57.6;49.4;
13030;PMS7003;6582;54.644;9.760;2023-04-06T16:55:07;62.7;52.9;
13030;PMS7003;6582;54.644;9.760;2023-04-06T17:00:02;50.5;42.5;
13030;PMS7003;6582;54.644;9.760;2023-04-06T17:05:01;50.9;42.9;
13030;PMS7003;6582;54.644;9.760;2023-04-06T17:10:11;50.4;42.2;
13030;PMS7003;6582;54.644;9.760;2023-04-06T17:15:02;47.6;40.3;
13030;PMS7003;6582;54.644;9.760;2023-04-06T17:20:01;46.6;40.1;
13030;PMS7003;6582;54.644;9.760;2023-04-06T17:25:06;51.9;45.3;
13030;PMS7003;6582;54.644;9.760;2023-04-06T17:30:02;43.2;38.6;
13030;PMS7003;6582;54.644;9.760;2023-04-06T17:35:01;32.6;30.0;
13030;PMS7003;6582;54.644;9.760;2023-04-06T17:40:01;33.4;30.4;
13030;PMS7003;6582;54.644;9.760;2023-04-06T17:45:01;34.2;30.8;
13030;PMS7003;6582;54.644;9.760;2023-04-06T17:50:06;35.3;31.8;
13030;PMS7003;6582;54.644;9.760;2023-04-06T17:55:02;37.1;33.6;
13030;PMS7003;6582;54.644;9.760;2023-04-06T18:00:06;47.2;42.3;
13030;PMS7003;6582;54.644;9.760;2023-04-06T18:05:06;39.7;36.6;
13030;PMS7003;6582;54.644;9.760;2023-04-06T18:10:01;33.1;31.4;
13030;PMS7003;6582;54.644;9.760;2023-04-06T18:15:01;27.1;25.5;
13030;PMS7003;6582;54.644;9.760;2023-04-06T18:20:01;22.8;21.2;
13030;PMS7003;6582;54.644;9.760;2023-04-06T18:25:02;13.2;12.9;
13030;PMS7003;6582;54.644;9.760;2023-04-06T18:30:02;15.0;14.5;
13030;PMS7003;6582;54.644;9.760;2023-04-06T18:35:01;22.6;20.7;
13030;PMS7003;6582;54.644;9.760;2023-04-06T18:40:01;35.4;31.6;
13030;PMS7003;6582;54.644;9.760;2023-04-06T18:45:01;42.9;38.3;
13030;PMS7003;6582;54.644;9.760;2023-04-06T18:50:01;49.6;44.1;
13030;PMS7003;6582;54.644;9.760;2023-04-06T18:55:01;43.7;38.4;
13030;PMS7003;6582;54.644;9.760;2023-04-06T19:00:02;48.3;41.5;
13030;PMS7003;6582;54.644;9.760;2023-04-06T19:05:02;50.4;43.0;
13030;PMS7003;6582;54.644;9.760;2023-04-06T19:10:03;61.2;53.2;
13030;PMS7003;6582;54.644;9.760;2023-04-06T19:15:03;74.0;65.4;
13030;PMS7003;6582;54.644;9.760;2023-04-06T19:20:01;91.6;80.2;
13030;PMS7003;6582;54.644;9.760;2023-04-06T19:25:02;90.3;79.6;
13030;PMS7003;6582;54.644;9.760;2023-04-06T19:30:06;91.5;80.3;
13030;PMS7003;6582;54.644;9.760;2023-04-06T19:35:01;87.0;74.8;
13030;PMS7003;6582;54.644;9.760;2023-04-06T19:40:02;73.6;62.0;
13030;PMS7003;6582;54.644;9.760;2023-04-06T19:45:06;63.0;53.6;
13030;PMS7003;6582;54.644;9.760;2023-04-06T19:50:02;62.8;53.7;
13030;PMS7003;6582;54.644;9.760;2023-04-06T19:55:03;59.8;51.9;
13030;PMS7003;6582;54.644;9.760;2023-04-06T20:00:06;57.4;50.1;
13030;PMS7003;6582;54.644;9.760;2023-04-06T20:25:06;50.6;42.6;
13030;PMS7003;6582;54.644;9.760;2023-04-06T20:30:01;28.3;24.3;
13030;PMS7003;6582;54.644;9.760;2023-04-06T20:35:02;21.4;18.7;
13030;PMS7003;6582;54.644;9.760;2023-04-06T20:40:02;17.2;15.2;
13030;PMS7003;6582;54.644;9.760;2023-04-06T20:45:01;17.1;15.5;
13030;PMS7003;6582;54.644;9.760;2023-04-06T20:50:06;7.0;7.0;
13030;PMS7003;6582;54.644;9.760;2023-04-06T20:55:01;5.8;5.8;
13030;PMS7003;6582;54.644;9.760;2023-04-06T21:00:02;12.8;12.3;
13030;PMS7003;6582;54.644;9.760;2023-04-06T21:05:01;21.0;20.0;
13030;PMS7003;6582;54.644;9.760;2023-04-06T21:10:01;29.9;27.4;
13030;PMS7003;6582;54.644;9.760;2023-04-06T21:15:01;40.9;37.1;
13030;PMS7003;6582;54.644;9.760;2023-04-06T21:20:01;50.5;45.8;
13030;PMS7003;6582;54.644;9.760;2023-04-06T21:25:02;47.1;42.8;
13030;PMS7003;6582;54.644;9.760;2023-04-06T21:30:02;38.6;34.8;
13030;PMS7003;6582;54.644;9.760;2023-04-06T21:35:01;26.4;24.2;
13030;PMS7003;6582;54.644;9.760;2023-04-06T21:40:01;21.5;20.5;
13030;PMS7003;6582;54.644;9.760;2023-04-06T21:45:01;12.1;12.0;
13030;PMS7003;6582;54.644;9.760;2023-04-06T21:50:06;7.1;7.0;
13030;PMS7003;6582;54.644;9.760;2023-04-06T21:55:02;6.6;6.5;
13030;PMS7003;6582;54.644;9.760;2023-04-06T22:00:04;6.6;6.5;
13030;PMS7003;6582;54.644;9.760;2023-04-06T22:30:02;2.8;2.8;
13030;PMS7003;6582;54.644;9.760;2023-04-06T22:35:01;3.1;3.0;
13030;PMS7003;6582;54.644;9.760;2023-04-06T22:45:04;3.1;3.0;
13030;PMS7003;6582;54.644;9.760;2023-04-06T23:05:01;6.9;6.4;
13030;PMS7003;6582;54.644;9.760;2023-04-06T23:10:01;11.1;10.6;
13030;PMS7003;6582;54.644;9.760;2023-04-06T23:15:01;12.9;12.4;
13030;PMS7003;6582;54.644;9.760;2023-04-06T23:20:01;13.0;12.4;
13030;PMS7003;6582;54.644;9.760;2023-04-06T23:25:01;13.1;12.5;
13030;PMS7003;6582;54.644;9.760;2023-04-06T23:30:01;6.8;6.8;
13030;PMS7003;6582;54.644;9.760;2023-04-06T23:35:06;2.6;2.6;
